createdAt,value
2022-08-07T00:02:36.551Z,102284.34
2022-08-07T00:05:28.968Z,102281.78
2022-08-07T00:08:16.574Z,102288.19
2022-08-07T00:11:07.494Z,102284.81
2022-08-07T00:13:57.774Z,102281.16
2022-08-07T00:16:46.451Z,102279.53
2022-08-07T00:19:59.786Z,102288.66
2022-08-07T00:22:42.321Z,102280.50
2022-08-07T00:25:41.491Z,102279.75
2022-08-07T00:28:33.658Z,102284.88
2022-08-07T00:31:21.352Z,102280.94
2022-08-07T00:34:08.953Z,102281.84
2022-08-07T00:36:56.686Z,102272.63
2022-08-07T00:39:45.039Z,102275.78
2022-08-07T00:42:33.592Z,102273.69
2022-08-07T00:45:23.701Z,102273.06
2022-08-07T00:48:11.889Z,102272.25
2022-08-07T00:51:00.387Z,102269.31
2022-08-07T00:53:50.615Z,102266.88
2022-08-07T00:56:42.414Z,102268.03
2022-08-07T00:59:35.712Z,102274.19
2022-08-07T01:02:28.527Z,102276.88
2022-08-07T01:05:19.458Z,102268.47
2022-08-07T01:08:08.957Z,102281.31
2022-08-07T01:10:56.717Z,102272.91
2022-08-07T01:13:56.087Z,102279.91
2022-08-07T01:16:47.319Z,102275.47
2022-08-07T01:19:38.496Z,102281.53
2022-08-07T01:22:29.508Z,102281.53
2022-08-07T01:25:40.399Z,102284.34
2022-08-07T01:28:24.310Z,102274.78
2022-08-07T01:31:15.490Z,102270.69
2022-08-07T01:34:08.278Z,102272.66
2022-08-07T01:36:57.942Z,102273.84
2022-08-07T01:39:47.094Z,102283.41
2022-08-07T01:42:40.249Z,102272.53
2022-08-07T01:45:43.680Z,102264.97
2022-08-07T01:48:34.163Z,102273.44
2022-08-07T01:52:00.932Z,102266.97
2022-08-07T01:54:36.498Z,102269.78
2022-08-07T01:57:28.818Z,102265.34
2022-08-07T02:00:17.778Z,102265.56
2022-08-07T02:03:15.952Z,102262.91
2022-08-07T02:06:31.614Z,102262.31
2022-08-07T02:09:33.916Z,102263.38
2022-08-07T02:12:32.902Z,102258.91
2022-08-07T02:15:25.416Z,102263.56
2022-08-07T02:18:15.762Z,102266.13
2022-08-07T02:21:08.299Z,102262.53
2022-08-07T02:24:04.498Z,102251.06
2022-08-07T02:26:52.814Z,102250.66
2022-08-07T02:29:43.589Z,102251.81
2022-08-07T02:32:39.502Z,102251.47
2022-08-07T02:36:29.499Z,102253.91
2022-08-07T02:38:57.278Z,102254.59
2022-08-07T02:41:47.254Z,102256.09
2022-08-07T02:44:42.279Z,102252.00
2022-08-07T02:47:45.234Z,102252.84
2022-08-07T02:50:42.671Z,102252.50
2022-08-07T02:53:38.704Z,102247.25
2022-08-07T02:56:31.342Z,102251.63
2022-08-07T02:59:24.156Z,102241.78
2022-08-07T03:02:15.262Z,102244.16
2022-08-07T03:05:04.895Z,102244.34
2022-08-07T03:08:07.657Z,102242.25
2022-08-07T03:10:58.230Z,102253.28
2022-08-07T03:13:49.910Z,102242.19
2022-08-07T03:16:38.380Z,102240.41
2022-08-07T03:19:28.943Z,102237.94
2022-08-07T03:22:18.860Z,102235.34
2022-08-07T03:25:06.522Z,102233.59
2022-08-07T03:27:59.210Z,102238.19
2022-08-07T03:31:17.417Z,102236.53
2022-08-07T03:34:07.981Z,102238.03
2022-08-07T03:36:57.194Z,102239.06
2022-08-07T03:40:13.203Z,102237.75
2022-08-07T03:42:55.677Z,102238.59
2022-08-07T03:45:47.872Z,102240.22
2022-08-07T03:48:45.445Z,102238.19
2022-08-07T03:51:47.859Z,102236.53
2022-08-07T03:54:55.268Z,102234.78
2022-08-07T03:58:34.994Z,102234.63
2022-08-07T04:00:58.240Z,102242.94
2022-08-07T04:03:53.598Z,102240.28
2022-08-07T04:06:43.729Z,102243.59
2022-08-07T04:09:45.465Z,102243.75
2022-08-07T04:12:38.273Z,102248.66
2022-08-07T04:15:25.422Z,102248.81
2022-08-07T04:18:58.421Z,102254.38
2022-08-07T04:21:21.811Z,102248.13
2022-08-07T04:24:30.705Z,102262.38
2022-08-07T04:27:35.950Z,102249.22
2022-08-07T04:30:39.507Z,102250.53
2022-08-07T04:33:36.242Z,102261.66
2022-08-07T04:36:26.220Z,102253.44
2022-08-07T04:39:13.650Z,102261.13
2022-08-07T04:42:05.144Z,102258.81
2022-08-07T04:45:02.703Z,102256.97
2022-08-07T04:48:10.454Z,102270.47
2022-08-07T04:51:16.166Z,102270.28
2022-08-07T04:54:32.286Z,102271.22
2022-08-07T04:58:15.111Z,102269.06
2022-08-07T05:00:59.220Z,102274.41
2022-08-07T05:04:24.849Z,102272.06
2022-08-07T05:07:30.484Z,102277.47
2022-08-07T05:10:37.604Z,102273.31
2022-08-07T05:14:56.174Z,102274.47
2022-08-07T05:16:52.749Z,102280.56
2022-08-07T05:19:47.177Z,102283.28
2022-08-07T05:22:36.275Z,102284.09
2022-08-07T05:25:36.719Z,102289.13
2022-08-07T05:28:36.662Z,102295.19
2022-08-07T05:31:38.853Z,102296.59
2022-08-07T05:34:28.410Z,102297.81
2022-08-07T05:37:25.138Z,102299.38
2022-08-07T05:40:18.710Z,102298.81
2022-08-07T05:43:10.681Z,102297.91
2022-08-07T05:46:01.237Z,102301.97
2022-08-07T05:48:59.416Z,102302.09
2022-08-07T05:51:47.984Z,102303.00
2022-08-07T05:54:53.738Z,102301.28
2022-08-07T05:57:44.958Z,102316.84
2022-08-07T06:00:35.143Z,102316.06
2022-08-07T06:03:24.053Z,102309.00
2022-08-07T06:06:12.822Z,102305.41
2022-08-07T06:09:06.613Z,102307.72
2022-08-07T06:11:55.867Z,102306.63
2022-08-07T06:14:49.535Z,102309.84
2022-08-07T06:17:38.014Z,102305.94
2022-08-07T06:20:49.780Z,102312.84
2022-08-07T06:24:37.130Z,102301.50
2022-08-07T06:26:42.434Z,102297.59
2022-08-07T06:29:30.875Z,102296.22
2022-08-07T06:32:18.036Z,102295.78
2022-08-07T06:35:17.580Z,102297.19
2022-08-07T06:38:06.273Z,102304.00
2022-08-07T06:40:59.421Z,102299.75
2022-08-07T06:43:59.542Z,102300.50
2022-08-07T06:47:00.062Z,102300.03
2022-08-07T06:49:58.694Z,102307.09
2022-08-07T06:52:53.185Z,102315.59
2022-08-07T06:56:00.032Z,102318.50
2022-08-07T07:00:13.310Z,102303.31
2022-08-07T07:01:58.803Z,102301.16
2022-08-07T07:04:54.924Z,102313.47
2022-08-07T07:07:59.243Z,102319.03
2022-08-07T07:10:56.673Z,102296.56
2022-08-07T07:13:57.641Z,102300.19
2022-08-07T07:16:53.453Z,102282.22
2022-08-07T07:19:57.052Z,102292.53
2022-08-07T07:24:08.378Z,102299.53
2022-08-07T07:26:32.361Z,102317.81
2022-08-07T07:29:56.761Z,102319.59
2022-08-07T07:32:25.642Z,102324.78
2022-08-07T07:35:14.603Z,102317.50
2022-08-07T07:38:04.800Z,102324.47
2022-08-07T07:41:02.369Z,102324.75
2022-08-07T07:44:16.726Z,102319.66
2022-08-07T07:47:14.014Z,102318.13
2022-08-07T07:50:34.647Z,102309.47
2022-08-07T07:53:13.631Z,102311.56
2022-08-07T07:56:12.663Z,102318.63
2022-08-07T07:59:06.032Z,102298.00
2022-08-07T08:02:01.635Z,102285.94
2022-08-07T08:04:53.581Z,102294.81
2022-08-07T08:07:59.717Z,102307.56
2022-08-07T08:10:49.289Z,102293.91
2022-08-07T08:13:54.996Z,102314.25
2022-08-07T08:16:50.404Z,102306.09
2022-08-07T08:20:18.311Z,102302.78
2022-08-07T08:23:08.341Z,102302.13
2022-08-07T08:26:18.761Z,102313.50
2022-08-07T08:29:09.426Z,102304.59
2022-08-07T08:31:58.777Z,102299.78
2022-08-07T08:35:06.239Z,102311.94
2022-08-07T08:42:09.244Z,102300.97
2022-08-07T08:59:08.656Z,102330.41
2022-08-07T09:02:24.736Z,102298.16
2022-08-07T09:05:55.842Z,102316.50
2022-08-07T09:09:09.712Z,102279.38
2022-08-07T09:12:31.094Z,102267.94
2022-08-07T09:16:22.942Z,102265.19
2022-08-07T09:19:53.690Z,102246.94
2022-08-07T09:24:33.530Z,102261.31
2022-08-07T09:26:28.652Z,102269.09
2022-08-07T09:30:04.270Z,102285.06
2022-08-07T09:33:05.533Z,102263.28
2022-08-07T09:36:22.887Z,102268.41
2022-08-07T09:39:55.559Z,102257.75
2022-08-07T09:42:58.726Z,102252.53
2022-08-07T09:47:42.329Z,102271.00
2022-08-07T09:50:01.995Z,102254.88
2022-08-07T09:52:59.543Z,102260.59
2022-08-07T09:56:42.093Z,102237.06
2022-08-07T10:00:00.613Z,102243.97
2022-08-07T10:04:05.371Z,102247.56
2022-08-07T10:06:49.100Z,102225.50
2022-08-07T10:09:59.264Z,102221.41
2022-08-07T10:12:53.605Z,102211.31
2022-08-07T10:16:10.015Z,102218.16
2022-08-07T10:19:31.374Z,102227.81
2022-08-07T10:23:02.225Z,102207.41
2022-08-07T10:26:17.751Z,102226.63
2022-08-07T10:29:51.561Z,102180.53
2022-08-07T10:32:59.626Z,102208.19
2022-08-07T10:36:05.581Z,102203.63
2022-08-07T10:39:41.518Z,102203.53
2022-08-07T10:42:54.603Z,102192.25
2022-08-07T10:45:58.324Z,102182.78
2022-08-07T10:49:15.002Z,102190.16
2022-08-07T10:52:33.671Z,102161.84
2022-08-07T10:55:37.783Z,102171.69
2022-08-07T10:59:00.137Z,102131.75
2022-08-07T11:02:04.800Z,102143.91
2022-08-07T11:05:14.025Z,102138.75
2022-08-07T11:08:11.843Z,102141.69
2022-08-07T11:11:06.476Z,102112.31
2022-08-07T11:14:43.411Z,102137.56
2022-08-07T11:17:43.112Z,102123.53
2022-08-07T11:21:14.201Z,102106.59
2022-08-07T11:24:12.143Z,102142.13
2022-08-07T11:27:17.777Z,102114.50
2022-08-07T11:30:18.218Z,102116.56
2022-08-07T11:33:53.831Z,102085.88
2022-08-07T11:36:31.290Z,102117.28
2022-08-07T11:39:59.109Z,102096.88
2022-08-07T11:43:18.619Z,102135.38
2022-08-07T11:46:57.245Z,102066.28
2022-08-07T11:50:31.263Z,102086.50
2022-08-07T11:53:27.735Z,102068.41
2022-08-07T11:56:32.910Z,102090.19
2022-08-07T12:00:11.913Z,102086.84
2022-08-07T12:03:44.541Z,102060.94
2022-08-07T12:06:37.378Z,102073.16
2022-08-07T12:09:54.119Z,102092.06
2022-08-07T12:12:49.543Z,102040.78
2022-08-07T12:16:05.453Z,102051.84
2022-08-07T12:19:21.627Z,102042.91
2022-08-07T12:22:37.934Z,102042.19
2022-08-07T12:26:03.200Z,102032.00
2022-08-07T12:29:06.868Z,102023.72
2022-08-07T12:32:04.974Z,102019.53
2022-08-07T12:34:56.587Z,102060.31
2022-08-07T12:38:11.205Z,102053.88
2022-08-07T12:40:57.547Z,102025.41
2022-08-07T12:44:02.704Z,102023.59
2022-08-07T12:47:30.396Z,102029.06
2022-08-07T12:50:39.510Z,101992.41
2022-08-07T12:54:03.370Z,102035.81
2022-08-07T12:57:09.455Z,102036.59
2022-08-07T13:00:02.286Z,102051.22
2022-08-07T13:03:22.992Z,102048.53
2022-08-07T13:07:00.500Z,102029.81
2022-08-07T13:10:37.664Z,102011.19
2022-08-07T13:13:49.196Z,102042.81
2022-08-07T13:17:02.659Z,102011.22
2022-08-07T13:20:01.263Z,101993.31
2022-08-07T13:22:55.972Z,102022.03
2022-08-07T13:26:00.781Z,102016.09
2022-08-07T13:29:13.085Z,101996.03
2022-08-07T13:32:31.845Z,101976.03
2022-08-07T13:36:00.483Z,101975.06
2022-08-07T13:39:49.049Z,101989.06
2022-08-07T13:42:41.492Z,101978.97
2022-08-07T13:46:21.233Z,101972.41
2022-08-07T13:48:51.909Z,101967.34
2022-08-07T13:52:22.843Z,101974.22
2022-08-07T13:55:00.656Z,101979.47
2022-08-07T13:58:01.708Z,101962.38
2022-08-07T14:01:50.996Z,101966.28
2022-08-07T14:04:56.907Z,101985.47
2022-08-07T14:08:00.085Z,101983.03
2022-08-07T14:11:01.870Z,101963.53
2022-08-07T14:14:08.186Z,101950.78
2022-08-07T14:16:59.984Z,101960.69
2022-08-07T14:20:42.032Z,101965.25
2022-08-07T14:23:31.481Z,101943.59
2022-08-07T14:26:56.896Z,101921.22
2022-08-07T14:30:10.247Z,101960.56
2022-08-07T14:33:00.165Z,101933.75
2022-08-07T14:35:47.971Z,101950.13
2022-08-07T14:38:36.073Z,101922.13
2022-08-07T14:41:33.856Z,101970.59
2022-08-07T14:44:40.609Z,101973.28
2022-08-07T14:47:33.346Z,101998.00
2022-08-07T14:50:24.478Z,101971.34
2022-08-07T14:53:13.838Z,101930.69
2022-08-07T14:56:13.115Z,101964.41
2022-08-07T15:00:04.723Z,101944.16
2022-08-07T15:02:32.170Z,101957.03
2022-08-07T15:05:23.761Z,101954.75
2022-08-07T15:08:14.001Z,101971.38
2022-08-07T15:11:14.986Z,101972.75
2022-08-07T15:17:17.244Z,101950.66
2022-08-07T15:20:31.118Z,101972.00
2022-08-07T15:26:44.720Z,101944.50
2022-08-07T15:30:10.103Z,101942.06
2022-08-07T15:33:03.806Z,101914.44
2022-08-07T15:36:01.506Z,101891.03
2022-08-07T15:42:45.731Z,101898.66
2022-08-07T15:45:25.130Z,101923.94
2022-08-07T15:48:37.004Z,101972.00
2022-08-07T15:55:02.346Z,101927.69
2022-08-07T15:58:00.270Z,101942.13
2022-08-07T16:00:50.089Z,101907.44
2022-08-07T16:03:55.511Z,101886.06
2022-08-07T16:06:55.591Z,101910.28
2022-08-07T16:10:27.873Z,101878.06
2022-08-07T16:13:58.099Z,101852.38
2022-08-07T16:17:03.145Z,101867.44
2022-08-07T16:20:33.329Z,101890.22
2022-08-07T16:23:55.050Z,101881.78
2022-08-07T16:27:18.259Z,101878.59
2022-08-07T16:30:30.723Z,101877.53
2022-08-07T16:34:01.436Z,101858.84
2022-08-07T16:38:02.929Z,101884.38
2022-08-07T16:40:28.272Z,101871.25
2022-08-07T16:44:02.652Z,101862.44
2022-08-07T16:47:49.602Z,101910.41
2022-08-07T16:50:48.139Z,101843.38
2022-08-07T16:54:12.185Z,101822.47
2022-08-07T16:57:06.287Z,101813.03
2022-08-07T17:00:12.079Z,101832.88
2022-08-07T17:03:17.481Z,101825.06
2022-08-07T17:06:31.049Z,101858.81
2022-08-07T17:10:06.913Z,101861.91
2022-08-07T17:13:23.359Z,101845.09
2022-08-07T17:16:11.157Z,101822.75
2022-08-07T17:19:03.961Z,101827.50
2022-08-07T17:21:58.998Z,101848.50
2022-08-07T17:24:58.154Z,101864.44
2022-08-07T17:28:00.659Z,101833.69
2022-08-07T17:31:16.703Z,101834.06
2022-08-07T17:34:33.266Z,101828.38
2022-08-07T17:38:05.788Z,101836.69
2022-08-07T17:40:58.954Z,101835.03
2022-08-07T17:44:34.074Z,101877.03
2022-08-07T17:47:41.747Z,101857.59
2022-08-07T17:50:49.111Z,101860.56
2022-08-07T17:54:00.208Z,101854.59
2022-08-07T17:57:01.470Z,101860.16
2022-08-07T17:59:54.986Z,101846.28
2022-08-07T18:03:09.134Z,101887.75
2022-08-07T18:06:06.674Z,101898.25
2022-08-07T18:09:05.834Z,101897.88
2022-08-07T18:12:27.923Z,101894.34
2022-08-07T18:15:51.805Z,101882.28
2022-08-07T18:21:10.311Z,101884.81
2022-08-07T18:22:11.483Z,101912.69
2022-08-07T18:25:19.260Z,101913.59
2022-08-07T18:28:58.160Z,101917.03
2022-08-07T18:31:51.433Z,101909.22
2022-08-07T18:35:03.055Z,101917.38
2022-08-07T18:38:58.643Z,101917.09
2022-08-07T18:41:24.505Z,101918.38
2022-08-07T18:45:43.304Z,101922.66
2022-08-07T18:49:23.698Z,101925.94
2022-08-07T18:52:34.343Z,101922.75
2022-08-07T18:55:42.437Z,101922.78
2022-08-07T18:58:51.655Z,101931.78
2022-08-07T19:02:34.486Z,101931.00
2022-08-07T19:06:01.910Z,101936.66
2022-08-07T19:08:58.590Z,101939.88
2022-08-07T19:12:11.390Z,101931.78
2022-08-07T19:16:03.792Z,101939.06
2022-08-07T19:18:35.905Z,101936.59
2022-08-07T19:21:56.876Z,101955.19
2022-08-07T19:24:53.042Z,101953.94
2022-08-07T19:30:54.654Z,101952.28
2022-08-07T19:31:41.480Z,101957.09
2022-08-07T19:34:03.191Z,101968.31
2022-08-07T19:36:53.523Z,101965.44
2022-08-07T19:39:57.603Z,101975.88
2022-08-07T19:42:49.703Z,101975.03
2022-08-07T19:46:05.820Z,101972.59
2022-08-07T19:48:56.034Z,101983.84
2022-08-07T19:58:13.976Z,101982.03
2022-08-07T20:01:09.677Z,101984.34
2022-08-07T20:04:31.623Z,101984.28
2022-08-07T20:07:14.226Z,101985.81
2022-08-07T20:10:35.919Z,101984.09
2022-08-07T20:13:38.094Z,101979.63
2022-08-07T20:16:36.459Z,101981.56
2022-08-07T20:19:28.885Z,101992.03
2022-08-07T20:22:40.091Z,101994.72
2022-08-07T20:25:32.007Z,101999.09
2022-08-07T20:28:30.913Z,101992.59
2022-08-07T20:31:21.151Z,101999.41
2022-08-07T20:34:09.932Z,102009.47
2022-08-07T20:36:58.678Z,101999.81
2022-08-07T20:40:02.597Z,102002.19
2022-08-07T20:42:56.689Z,102000.47
2022-08-07T20:46:29.775Z,102006.03
2022-08-07T20:49:58.915Z,102003.66
2022-08-07T20:52:17.240Z,102004.34
2022-08-07T20:55:08.698Z,101997.84
2022-08-07T20:58:03.491Z,101993.72
2022-08-07T21:01:03.467Z,101997.66
2022-08-07T21:04:13.367Z,101986.38
2022-08-07T21:07:04.473Z,101988.63
2022-08-07T21:10:03.475Z,101986.59
2022-08-07T21:12:54.921Z,101974.81
2022-08-07T21:15:47.721Z,101981.97
2022-08-07T21:18:50.422Z,101989.91
2022-08-07T21:21:56.709Z,101988.69
2022-08-07T21:25:11.727Z,101985.31
2022-08-07T21:28:47.722Z,101998.00
2022-08-07T21:32:03.700Z,102000.81
2022-08-07T21:34:59.257Z,102001.47
2022-08-07T21:38:00.321Z,102009.72
2022-08-07T21:41:26.362Z,102005.72
2022-08-07T21:44:28.421Z,102001.88
2022-08-07T21:47:26.136Z,102003.06
2022-08-07T21:50:24.518Z,102009.00
2022-08-07T21:53:32.471Z,102009.00
2022-08-07T21:56:36.407Z,102011.44
2022-08-07T22:00:06.141Z,102008.84
2022-08-07T22:03:09.836Z,102014.41
2022-08-07T22:06:30.425Z,102007.59
2022-08-07T22:09:28.189Z,102006.97
2022-08-07T22:12:38.455Z,102008.53
2022-08-07T22:16:39.067Z,102006.75
2022-08-07T22:19:08.471Z,102011.31
2022-08-07T22:22:21.086Z,102008.50
2022-08-07T22:25:42.841Z,102002.13
2022-08-07T22:29:08.922Z,101999.56
2022-08-07T22:32:08.921Z,101996.66
2022-08-07T22:35:05.009Z,102004.81
2022-08-07T22:38:24.187Z,102007.50
2022-08-07T22:41:22.317Z,101997.00
2022-08-07T22:44:34.476Z,102011.50
2022-08-07T22:47:35.516Z,102007.25
2022-08-07T22:51:01.692Z,102015.16
2022-08-07T22:54:12.173Z,102013.97
2022-08-07T22:57:26.195Z,102015.75
2022-08-07T23:00:18.984Z,102015.75
2022-08-07T23:03:58.592Z,102011.50
2022-08-07T23:07:02.766Z,102013.88
2022-08-07T23:10:38.374Z,102025.75
2022-08-07T23:14:16.018Z,102031.66
2022-08-07T23:17:03.970Z,102027.22
2022-08-07T23:20:40.403Z,102032.59
2022-08-07T23:24:06.356Z,102036.84
2022-08-07T23:27:34.564Z,102037.22
2022-08-07T23:30:37.498Z,102031.22
2022-08-07T23:34:36.244Z,102022.34
2022-08-07T23:38:00.896Z,102021.59
2022-08-07T23:40:56.614Z,102011.84
2022-08-07T23:44:41.434Z,102015.56
2022-08-07T23:47:47.811Z,102019.22
2022-08-07T23:50:57.734Z,102018.41
2022-08-07T23:54:44.096Z,102021.22
2022-08-07T23:57:41.663Z,102017.31
